sensor_id;sensor_type;location;lat;lon;timestamp;temperature;humidity
65378;SHT31;51982;51.042;13.806;2022-08-19T00:01:37;25.65;72.32
65378;SHT31;51982;51.042;13.806;2022-08-19T00:04:07;25.67;72.33
65378;SHT31;51982;51.042;13.806;2022-08-19T00:06:34;25.66;72.24
65378;SHT31;51982;51.042;13.806;2022-08-19T00:09:00;25.63;72.33
65378;SHT31;51982;51.042;13.806;2022-08-19T00:11:27;25.56;72.52
65378;SHT31;51982;51.042;13.806;2022-08-19T00:13:53;25.58;72.54
65378;SHT31;51982;51.042;13.806;2022-08-19T00:16:20;25.59;72.57
65378;SHT31;51982;51.042;13.806;2022-08-19T00:18:46;25.52;72.62
65378;SHT31;51982;51.042;13.806;2022-08-19T00:21:11;25.55;72.70
65378;SHT31;51982;51.042;13.806;2022-08-19T00:23:36;25.53;72.63
65378;SHT31;51982;51.042;13.806;2022-08-19T00:26:03;25.53;72.70
65378;SHT31;51982;51.042;13.806;2022-08-19T00:28:29;25.55;72.74
65378;SHT31;51982;51.042;13.806;2022-08-19T00:30:55;25.56;72.74
65378;SHT31;51982;51.042;13.806;2022-08-19T00:33:20;25.55;72.84
65378;SHT31;51982;51.042;13.806;2022-08-19T00:35:46;25.53;72.88
65378;SHT31;51982;51.042;13.806;2022-08-19T00:38:11;25.52;72.93
65378;SHT31;51982;51.042;13.806;2022-08-19T00:40:36;25.53;73.01
65378;SHT31;51982;51.042;13.806;2022-08-19T00:43:08;25.49;73.25
65378;SHT31;51982;51.042;13.806;2022-08-19T00:45:33;25.46;73.27
65378;SHT31;51982;51.042;13.806;2022-08-19T00:48:00;25.45;73.43
65378;SHT31;51982;51.042;13.806;2022-08-19T00:50:28;25.41;73.55
65378;SHT31;51982;51.042;13.806;2022-08-19T00:52:55;25.36;73.62
65378;SHT31;51982;51.042;13.806;2022-08-19T00:55:24;25.36;73.81
65378;SHT31;51982;51.042;13.806;2022-08-19T00:57:59;25.33;74.04
65378;SHT31;51982;51.042;13.806;2022-08-19T01:00:27;25.28;74.03
65378;SHT31;51982;51.042;13.806;2022-08-19T01:02:54;25.28;74.07
65378;SHT31;51982;51.042;13.806;2022-08-19T01:05:23;25.26;74.27
65378;SHT31;51982;51.042;13.806;2022-08-19T01:07:50;25.22;74.37
65378;SHT31;51982;51.042;13.806;2022-08-19T01:10:19;25.16;74.72
65378;SHT31;51982;51.042;13.806;2022-08-19T01:12:46;25.19;74.63
65378;SHT31;51982;51.042;13.806;2022-08-19T01:15:14;25.10;75.01
65378;SHT31;51982;51.042;13.806;2022-08-19T01:17:41;25.11;74.97
65378;SHT31;51982;51.042;13.806;2022-08-19T01:20:11;25.10;75.24
65378;SHT31;51982;51.042;13.806;2022-08-19T01:22:46;25.14;75.43
65378;SHT31;51982;51.042;13.806;2022-08-19T01:25:14;25.08;75.20
65378;SHT31;51982;51.042;13.806;2022-08-19T01:27:44;25.07;75.23
65378;SHT31;51982;51.042;13.806;2022-08-19T01:30:15;25.02;75.34
65378;SHT31;51982;51.042;13.806;2022-08-19T01:32:41;25.05;75.25
65378;SHT31;51982;51.042;13.806;2022-08-19T01:35:07;25.07;75.36
65378;SHT31;51982;51.042;13.806;2022-08-19T01:37:47;25.10;75.73
65378;SHT31;51982;51.042;13.806;2022-08-19T01:40:14;25.11;75.24
65378;SHT31;51982;51.042;13.806;2022-08-19T01:42:39;25.04;75.48
65378;SHT31;51982;51.042;13.806;2022-08-19T01:45:06;25.08;75.38
65378;SHT31;51982;51.042;13.806;2022-08-19T01:47:34;25.07;75.40
65378;SHT31;51982;51.042;13.806;2022-08-19T01:50:00;25.04;75.47
65378;SHT31;51982;51.042;13.806;2022-08-19T01:52:25;25.07;75.47
65378;SHT31;51982;51.042;13.806;2022-08-19T01:54:52;25.05;75.57
65378;SHT31;51982;51.042;13.806;2022-08-19T01:57:17;25.08;75.57
65378;SHT31;51982;51.042;13.806;2022-08-19T01:59:44;25.08;75.57
65378;SHT31;51982;51.042;13.806;2022-08-19T02:02:10;25.08;75.59
65378;SHT31;51982;51.042;13.806;2022-08-19T02:04:35;25.05;75.68
65378;SHT31;51982;51.042;13.806;2022-08-19T02:07:01;24.99;75.81
65378;SHT31;51982;51.042;13.806;2022-08-19T02:09:26;24.98;76.04
65378;SHT31;51982;51.042;13.806;2022-08-19T02:11:52;24.94;76.20
65378;SHT31;51982;51.042;13.806;2022-08-19T02:14:18;24.95;76.23
65378;SHT31;51982;51.042;13.806;2022-08-19T02:16:43;24.94;76.25
65378;SHT31;51982;51.042;13.806;2022-08-19T02:19:08;24.95;76.35
65378;SHT31;51982;51.042;13.806;2022-08-19T02:21:35;24.95;76.37
65378;SHT31;51982;51.042;13.806;2022-08-19T02:24:00;24.94;76.38
65378;SHT31;51982;51.042;13.806;2022-08-19T02:26:26;24.96;76.33
65378;SHT31;51982;51.042;13.806;2022-08-19T02:28:52;24.95;76.45
65378;SHT31;51982;51.042;13.806;2022-08-19T02:31:20;24.96;76.46
65378;SHT31;51982;51.042;13.806;2022-08-19T02:33:46;24.96;76.48
65378;SHT31;51982;51.042;13.806;2022-08-19T02:36:13;24.94;76.58
65378;SHT31;51982;51.042;13.806;2022-08-19T02:38:39;24.94;76.66
65378;SHT31;51982;51.042;13.806;2022-08-19T02:41:08;24.90;76.72
65378;SHT31;51982;51.042;13.806;2022-08-19T02:43:36;24.91;76.72
65378;SHT31;51982;51.042;13.806;2022-08-19T02:46:10;24.94;76.61
65378;SHT31;51982;51.042;13.806;2022-08-19T02:48:36;24.91;76.79
65378;SHT31;51982;51.042;13.806;2022-08-19T02:51:01;24.90;76.81
65378;SHT31;51982;51.042;13.806;2022-08-19T02:53:27;24.92;76.84
65378;SHT31;51982;51.042;13.806;2022-08-19T02:55:52;24.85;76.96
65378;SHT31;51982;51.042;13.806;2022-08-19T02:58:19;24.84;77.06
65378;SHT31;51982;51.042;13.806;2022-08-19T03:00:47;24.82;77.20
65378;SHT31;51982;51.042;13.806;2022-08-19T03:03:13;24.85;77.11
65378;SHT31;51982;51.042;13.806;2022-08-19T03:05:39;24.88;77.10
65378;SHT31;51982;51.042;13.806;2022-08-19T03:08:04;24.88;77.15
65378;SHT31;51982;51.042;13.806;2022-08-19T03:10:31;24.90;77.05
65378;SHT31;51982;51.042;13.806;2022-08-19T03:12:56;24.82;77.31
65378;SHT31;51982;51.042;13.806;2022-08-19T03:15:21;24.84;77.28
65378;SHT31;51982;51.042;13.806;2022-08-19T03:17:46;24.82;77.35
65378;SHT31;51982;51.042;13.806;2022-08-19T03:20:12;24.81;77.35
65378;SHT31;51982;51.042;13.806;2022-08-19T03:22:37;24.80;77.36
65378;SHT31;51982;51.042;13.806;2022-08-19T03:25:03;24.81;77.41
65378;SHT31;51982;51.042;13.806;2022-08-19T03:27:28;24.80;77.44
65378;SHT31;51982;51.042;13.806;2022-08-19T03:29:54;24.81;77.41
65378;SHT31;51982;51.042;13.806;2022-08-19T03:32:20;24.78;77.54
65378;SHT31;51982;51.042;13.806;2022-08-19T03:34:47;24.78;77.51
65378;SHT31;51982;51.042;13.806;2022-08-19T03:37:12;24.77;77.56
65378;SHT31;51982;51.042;13.806;2022-08-19T03:39:38;24.77;77.56
65378;SHT31;51982;51.042;13.806;2022-08-19T03:42:04;24.75;77.65
65378;SHT31;51982;51.042;13.806;2022-08-19T03:44:31;24.72;77.72
65378;SHT31;51982;51.042;13.806;2022-08-19T03:46:58;24.71;77.77
65378;SHT31;51982;51.042;13.806;2022-08-19T03:49:29;24.74;77.80
65378;SHT31;51982;51.042;13.806;2022-08-19T03:51:57;24.77;77.67
65378;SHT31;51982;51.042;13.806;2022-08-19T03:54:24;24.77;77.65
65378;SHT31;51982;51.042;13.806;2022-08-19T03:56:52;24.78;77.60
65378;SHT31;51982;51.042;13.806;2022-08-19T03:59:25;24.72;77.80
65378;SHT31;51982;51.042;13.806;2022-08-19T04:02:00;24.77;77.87
65378;SHT31;51982;51.042;13.806;2022-08-19T04:04:26;24.74;77.60
65378;SHT31;51982;51.042;13.806;2022-08-19T04:06:51;24.68;77.75
65378;SHT31;51982;51.042;13.806;2022-08-19T04:09:18;24.61;77.95
65378;SHT31;51982;51.042;13.806;2022-08-19T04:11:46;24.60;77.96
65378;SHT31;51982;51.042;13.806;2022-08-19T04:14:17;24.59;77.99
65378;SHT31;51982;51.042;13.806;2022-08-19T04:16:43;24.59;77.92
65378;SHT31;51982;51.042;13.806;2022-08-19T04:19:09;24.57;78.01
65378;SHT31;51982;51.042;13.806;2022-08-19T04:21:35;24.57;78.00
65378;SHT31;51982;51.042;13.806;2022-08-19T04:24:00;24.57;78.02
65378;SHT31;51982;51.042;13.806;2022-08-19T04:26:29;24.56;78.07
65378;SHT31;51982;51.042;13.806;2022-08-19T04:28:58;24.51;78.26
65378;SHT31;51982;51.042;13.806;2022-08-19T04:31:26;24.50;78.24
65378;SHT31;51982;51.042;13.806;2022-08-19T04:34:01;24.50;78.59
65378;SHT31;51982;51.042;13.806;2022-08-19T04:36:30;24.50;78.34
65378;SHT31;51982;51.042;13.806;2022-08-19T04:38:58;24.50;78.41
65378;SHT31;51982;51.042;13.806;2022-08-19T04:41:24;24.47;78.43
65378;SHT31;51982;51.042;13.806;2022-08-19T04:44:08;24.50;78.39
65378;SHT31;51982;51.042;13.806;2022-08-19T04:46:33;24.56;78.37
65378;SHT31;51982;51.042;13.806;2022-08-19T04:49:00;24.60;78.31
65378;SHT31;51982;51.042;13.806;2022-08-19T04:51:25;24.59;78.38
65378;SHT31;51982;51.042;13.806;2022-08-19T04:53:51;24.54;78.58
65378;SHT31;51982;51.042;13.806;2022-08-19T04:56:18;24.56;78.55
65378;SHT31;51982;51.042;13.806;2022-08-19T04:58:46;24.53;78.62
65378;SHT31;51982;51.042;13.806;2022-08-19T05:01:13;24.51;78.51
65378;SHT31;51982;51.042;13.806;2022-08-19T05:03:38;24.51;78.52
65378;SHT31;51982;51.042;13.806;2022-08-19T05:06:09;24.51;78.56
65378;SHT31;51982;51.042;13.806;2022-08-19T05:08:36;24.54;78.48
65378;SHT31;51982;51.042;13.806;2022-08-19T05:11:12;24.51;78.61
65378;SHT31;51982;51.042;13.806;2022-08-19T05:13:38;24.54;78.37
65378;SHT31;51982;51.042;13.806;2022-08-19T05:16:04;24.56;78.34
65378;SHT31;51982;51.042;13.806;2022-08-19T05:18:29;24.51;78.35
65378;SHT31;51982;51.042;13.806;2022-08-19T05:21:17;24.47;78.35
65378;SHT31;51982;51.042;13.806;2022-08-19T05:24:01;24.53;78.27
65378;SHT31;51982;51.042;13.806;2022-08-19T05:26:27;24.53;78.28
65378;SHT31;51982;51.042;13.806;2022-08-19T05:28:54;24.54;78.27
65378;SHT31;51982;51.042;13.806;2022-08-19T05:31:19;24.54;78.29
65378;SHT31;51982;51.042;13.806;2022-08-19T05:33:45;24.50;78.35
65378;SHT31;51982;51.042;13.806;2022-08-19T05:36:10;24.53;78.30
65378;SHT31;51982;51.042;13.806;2022-08-19T05:38:36;24.54;78.26
65378;SHT31;51982;51.042;13.806;2022-08-19T05:41:07;24.49;78.34
65378;SHT31;51982;51.042;13.806;2022-08-19T05:43:33;24.51;78.21
65378;SHT31;51982;51.042;13.806;2022-08-19T05:45:58;24.53;78.10
65378;SHT31;51982;51.042;13.806;2022-08-19T05:48:24;24.49;78.17
65378;SHT31;51982;51.042;13.806;2022-08-19T05:50:49;24.49;78.20
65378;SHT31;51982;51.042;13.806;2022-08-19T05:53:15;24.49;78.23
65378;SHT31;51982;51.042;13.806;2022-08-19T05:55:41;24.44;78.28
65378;SHT31;51982;51.042;13.806;2022-08-19T05:58:06;24.39;78.45
65378;SHT31;51982;51.042;13.806;2022-08-19T06:00:36;24.37;78.52
65378;SHT31;51982;51.042;13.806;2022-08-19T06:03:02;24.36;78.62
65378;SHT31;51982;51.042;13.806;2022-08-19T06:05:32;24.37;78.66
65378;SHT31;51982;51.042;13.806;2022-08-19T06:07:57;24.39;78.64
65378;SHT31;51982;51.042;13.806;2022-08-19T06:10:24;24.37;78.71
65378;SHT31;51982;51.042;13.806;2022-08-19T06:12:49;24.34;79.13
65378;SHT31;51982;51.042;13.806;2022-08-19T06:15:15;24.36;79.30
65378;SHT31;51982;51.042;13.806;2022-08-19T06:17:41;24.37;79.42
65378;SHT31;51982;51.042;13.806;2022-08-19T06:20:11;24.36;79.33
65378;SHT31;51982;51.042;13.806;2022-08-19T06:22:40;24.33;79.23
65378;SHT31;51982;51.042;13.806;2022-08-19T06:25:06;24.30;79.21
65378;SHT31;51982;51.042;13.806;2022-08-19T06:27:31;24.30;79.16
65378;SHT31;51982;51.042;13.806;2022-08-19T06:29:58;24.34;78.91
65378;SHT31;51982;51.042;13.806;2022-08-19T06:32:23;24.37;78.77
65378;SHT31;51982;51.042;13.806;2022-08-19T06:34:48;24.33;78.77
65378;SHT31;51982;51.042;13.806;2022-08-19T06:37:14;24.31;78.63
65378;SHT31;51982;51.042;13.806;2022-08-19T06:39:42;24.37;78.78
65378;SHT31;51982;51.042;13.806;2022-08-19T06:42:08;24.37;78.65
65378;SHT31;51982;51.042;13.806;2022-08-19T06:44:39;24.39;79.14
65378;SHT31;51982;51.042;13.806;2022-08-19T06:47:07;24.36;79.10
65378;SHT31;51982;51.042;13.806;2022-08-19T06:49:33;24.37;78.95
65378;SHT31;51982;51.042;13.806;2022-08-19T06:51:59;24.31;78.95
65378;SHT31;51982;51.042;13.806;2022-08-19T06:54:25;24.33;78.88
65378;SHT31;51982;51.042;13.806;2022-08-19T06:56:51;24.37;78.88
65378;SHT31;51982;51.042;13.806;2022-08-19T06:59:21;24.36;79.10
65378;SHT31;51982;51.042;13.806;2022-08-19T07:01:52;24.36;79.34
65378;SHT31;51982;51.042;13.806;2022-08-19T07:04:23;24.34;79.30
65378;SHT31;51982;51.042;13.806;2022-08-19T07:06:50;24.36;79.43
65378;SHT31;51982;51.042;13.806;2022-08-19T07:09:17;24.31;79.50
65378;SHT31;51982;51.042;13.806;2022-08-19T07:11:47;24.33;79.58
65378;SHT31;51982;51.042;13.806;2022-08-19T07:14:13;24.31;79.41
65378;SHT31;51982;51.042;13.806;2022-08-19T07:16:39;24.29;79.55
65378;SHT31;51982;51.042;13.806;2022-08-19T07:19:04;24.30;79.49
65378;SHT31;51982;51.042;13.806;2022-08-19T07:21:29;24.31;79.55
65378;SHT31;51982;51.042;13.806;2022-08-19T07:23:56;24.34;79.41
65378;SHT31;51982;51.042;13.806;2022-08-19T07:26:27;24.34;79.57
65378;SHT31;51982;51.042;13.806;2022-08-19T07:28:54;24.34;80.02
65378;SHT31;51982;51.042;13.806;2022-08-19T07:31:21;24.33;80.11
65378;SHT31;51982;51.042;13.806;2022-08-19T07:33:49;24.34;79.97
65378;SHT31;51982;51.042;13.806;2022-08-19T07:36:18;24.33;80.27
65378;SHT31;51982;51.042;13.806;2022-08-19T07:38:47;24.29;80.57
65378;SHT31;51982;51.042;13.806;2022-08-19T07:41:16;24.29;80.90
65378;SHT31;51982;51.042;13.806;2022-08-19T07:43:42;24.29;81.09
65378;SHT31;51982;51.042;13.806;2022-08-19T07:46:09;24.29;81.39
65378;SHT31;51982;51.042;13.806;2022-08-19T07:48:34;24.30;81.55
65378;SHT31;51982;51.042;13.806;2022-08-19T07:51:02;24.20;81.60
65378;SHT31;51982;51.042;13.806;2022-08-19T07:53:29;24.19;82.07
65378;SHT31;51982;51.042;13.806;2022-08-19T07:55:55;24.23;82.37
65378;SHT31;51982;51.042;13.806;2022-08-19T07:58:24;24.21;82.59
65378;SHT31;51982;51.042;13.806;2022-08-19T08:00:50;24.23;82.62
65378;SHT31;51982;51.042;13.806;2022-08-19T08:03:20;24.24;82.93
65378;SHT31;51982;51.042;13.806;2022-08-19T08:05:46;24.27;83.00
65378;SHT31;51982;51.042;13.806;2022-08-19T08:08:30;24.31;82.94
65378;SHT31;51982;51.042;13.806;2022-08-19T08:11:19;24.23;82.77
65378;SHT31;51982;51.042;13.806;2022-08-19T08:13:45;24.26;82.91
65378;SHT31;51982;51.042;13.806;2022-08-19T08:16:10;24.26;83.12
65378;SHT31;51982;51.042;13.806;2022-08-19T08:18:35;24.30;83.26
65378;SHT31;51982;51.042;13.806;2022-08-19T08:21:07;24.30;83.14
65378;SHT31;51982;51.042;13.806;2022-08-19T08:23:32;24.29;83.14
65378;SHT31;51982;51.042;13.806;2022-08-19T08:25:58;24.31;82.98
65378;SHT31;51982;51.042;13.806;2022-08-19T08:28:25;24.27;82.69
65378;SHT31;51982;51.042;13.806;2022-08-19T08:30:50;24.26;82.64
65378;SHT31;51982;51.042;13.806;2022-08-19T08:33:21;24.21;83.01
65378;SHT31;51982;51.042;13.806;2022-08-19T08:35:46;24.21;83.42
65378;SHT31;51982;51.042;13.806;2022-08-19T08:38:13;24.14;84.21
65378;SHT31;51982;51.042;13.806;2022-08-19T08:40:47;24.10;84.20
65378;SHT31;51982;51.042;13.806;2022-08-19T08:46:06;24.21;84.05
65378;SHT31;51982;51.042;13.806;2022-08-19T08:48:39;24.33;83.80
65378;SHT31;51982;51.042;13.806;2022-08-19T08:51:11;24.41;83.32
65378;SHT31;51982;51.042;13.806;2022-08-19T08:53:37;24.56;82.76
65378;SHT31;51982;51.042;13.806;2022-08-19T08:56:06;24.68;82.16
65378;SHT31;51982;51.042;13.806;2022-08-19T08:58:42;24.77;81.57
65378;SHT31;51982;51.042;13.806;2022-08-19T09:01:11;24.78;81.41
65378;SHT31;51982;51.042;13.806;2022-08-19T09:03:39;24.82;81.16
65378;SHT31;51982;51.042;13.806;2022-08-19T09:06:14;24.88;81.01
65378;SHT31;51982;51.042;13.806;2022-08-19T09:08:48;24.87;80.87
65378;SHT31;51982;51.042;13.806;2022-08-19T09:11:23;24.91;80.73
65378;SHT31;51982;51.042;13.806;2022-08-19T09:16:24;25.07;80.45
65378;SHT31;51982;51.042;13.806;2022-08-19T09:18:56;25.01;80.31
65378;SHT31;51982;51.042;13.806;2022-08-19T09:21:24;24.99;80.21
65378;SHT31;51982;51.042;13.806;2022-08-19T09:23:50;25.04;79.94
65378;SHT31;51982;51.042;13.806;2022-08-19T09:26:19;25.04;79.89
65378;SHT31;51982;51.042;13.806;2022-08-19T09:28:47;25.07;79.78
65378;SHT31;51982;51.042;13.806;2022-08-19T09:31:15;25.11;79.49
65378;SHT31;51982;51.042;13.806;2022-08-19T09:33:41;25.21;79.33
65378;SHT31;51982;51.042;13.806;2022-08-19T09:36:11;25.32;79.10
65378;SHT31;51982;51.042;13.806;2022-08-19T09:38:37;25.46;78.73
65378;SHT31;51982;51.042;13.806;2022-08-19T09:41:08;25.47;78.48
65378;SHT31;51982;51.042;13.806;2022-08-19T09:43:36;25.46;78.37
65378;SHT31;51982;51.042;13.806;2022-08-19T09:46:04;25.46;78.30
65378;SHT31;51982;51.042;13.806;2022-08-19T09:48:35;25.47;78.10
65378;SHT31;51982;51.042;13.806;2022-08-19T09:51:09;25.66;77.79
65378;SHT31;51982;51.042;13.806;2022-08-19T09:53:35;25.76;77.63
65378;SHT31;51982;51.042;13.806;2022-08-19T09:56:02;25.80;77.31
65378;SHT31;51982;51.042;13.806;2022-08-19T09:58:27;25.87;77.25
65378;SHT31;51982;51.042;13.806;2022-08-19T10:00:55;25.97;76.92
65378;SHT31;51982;51.042;13.806;2022-08-19T10:03:20;26.16;76.50
65378;SHT31;51982;51.042;13.806;2022-08-19T10:05:46;26.31;76.14
65378;SHT31;51982;51.042;13.806;2022-08-19T10:08:15;26.24;76.08
65378;SHT31;51982;51.042;13.806;2022-08-19T10:10:42;26.06;76.26
65378;SHT31;51982;51.042;13.806;2022-08-19T10:13:10;25.94;76.57
65378;SHT31;51982;51.042;13.806;2022-08-19T10:15:36;25.87;76.57
65378;SHT31;51982;51.042;13.806;2022-08-19T10:18:04;25.96;76.32
65378;SHT31;51982;51.042;13.806;2022-08-19T10:20:29;26.12;75.93
65378;SHT31;51982;51.042;13.806;2022-08-19T10:22:55;26.21;75.65
65378;SHT31;51982;51.042;13.806;2022-08-19T10:25:20;26.48;74.93
65378;SHT31;51982;51.042;13.806;2022-08-19T10:27:45;26.64;74.38
65378;SHT31;51982;51.042;13.806;2022-08-19T10:30:11;26.65;74.29
65378;SHT31;51982;51.042;13.806;2022-08-19T10:32:36;26.69;74.29
65378;SHT31;51982;51.042;13.806;2022-08-19T10:35:03;26.77;74.14
65378;SHT31;51982;51.042;13.806;2022-08-19T10:37:32;26.92;73.92
65378;SHT31;51982;51.042;13.806;2022-08-19T10:39:58;27.06;73.39
65378;SHT31;51982;51.042;13.806;2022-08-19T10:42:23;27.29;72.90
65378;SHT31;51982;51.042;13.806;2022-08-19T10:44:49;27.25;72.81
65378;SHT31;51982;51.042;13.806;2022-08-19T10:47:14;27.15;72.85
65378;SHT31;51982;51.042;13.806;2022-08-19T10:49:40;26.95;73.16
65378;SHT31;51982;51.042;13.806;2022-08-19T10:52:25;26.92;73.23
65378;SHT31;51982;51.042;13.806;2022-08-19T10:55:01;27.05;72.92
65378;SHT31;51982;51.042;13.806;2022-08-19T10:57:45;27.18;72.57
65378;SHT31;51982;51.042;13.806;2022-08-19T11:00:10;27.12;72.56
65378;SHT31;51982;51.042;13.806;2022-08-19T11:02:36;26.99;72.74
65378;SHT31;51982;51.042;13.806;2022-08-19T11:05:01;26.77;73.02
65378;SHT31;51982;51.042;13.806;2022-08-19T11:07:26;26.68;73.15
65378;SHT31;51982;51.042;13.806;2022-08-19T11:09:52;26.61;73.33
65378;SHT31;51982;51.042;13.806;2022-08-19T11:12:17;26.68;73.34
65378;SHT31;51982;51.042;13.806;2022-08-19T11:14:42;26.71;73.27
65378;SHT31;51982;51.042;13.806;2022-08-19T11:17:07;26.82;72.90
65378;SHT31;51982;51.042;13.806;2022-08-19T11:19:33;26.91;72.81
65378;SHT31;51982;51.042;13.806;2022-08-19T11:21:59;26.89;72.73
65378;SHT31;51982;51.042;13.806;2022-08-19T11:24:26;26.96;72.63
65378;SHT31;51982;51.042;13.806;2022-08-19T11:26:54;27.06;72.42
65378;SHT31;51982;51.042;13.806;2022-08-19T11:29:24;27.02;72.24
65378;SHT31;51982;51.042;13.806;2022-08-19T11:31:53;27.09;72.08
65378;SHT31;51982;51.042;13.806;2022-08-19T11:34:24;27.23;71.70
65378;SHT31;51982;51.042;13.806;2022-08-19T11:36:51;27.43;71.37
65378;SHT31;51982;51.042;13.806;2022-08-19T11:39:19;27.42;71.31
65378;SHT31;51982;51.042;13.806;2022-08-19T11:41:44;27.32;71.44
65378;SHT31;51982;51.042;13.806;2022-08-19T11:44:10;27.18;71.75
65378;SHT31;51982;51.042;13.806;2022-08-19T11:46:36;26.96;72.20
65378;SHT31;51982;51.042;13.806;2022-08-19T11:49:03;26.75;72.59
65378;SHT31;51982;51.042;13.806;2022-08-19T11:51:30;26.68;72.63
65378;SHT31;51982;51.042;13.806;2022-08-19T11:53:57;26.75;72.52
65378;SHT31;51982;51.042;13.806;2022-08-19T11:56:24;26.82;72.42
65378;SHT31;51982;51.042;13.806;2022-08-19T11:58:51;26.85;72.43
65378;SHT31;51982;51.042;13.806;2022-08-19T12:01:19;26.78;72.51
65378;SHT31;51982;51.042;13.806;2022-08-19T12:03:46;26.78;72.50
65378;SHT31;51982;51.042;13.806;2022-08-19T12:06:14;26.67;72.66
65378;SHT31;51982;51.042;13.806;2022-08-19T12:08:41;26.68;72.68
65378;SHT31;51982;51.042;13.806;2022-08-19T12:11:06;26.65;72.70
65378;SHT31;51982;51.042;13.806;2022-08-19T12:13:35;26.61;72.77
65378;SHT31;51982;51.042;13.806;2022-08-19T12:16:00;26.52;72.75
65378;SHT31;51982;51.042;13.806;2022-08-19T12:18:32;26.59;72.70
65378;SHT31;51982;51.042;13.806;2022-08-19T12:20:57;26.64;72.56
65378;SHT31;51982;51.042;13.806;2022-08-19T12:23:22;26.72;72.45
65378;SHT31;51982;51.042;13.806;2022-08-19T12:25:49;26.67;72.54
65378;SHT31;51982;51.042;13.806;2022-08-19T12:28:21;26.59;72.79
65378;SHT31;51982;51.042;13.806;2022-08-19T12:30:48;26.51;73.32
65378;SHT31;51982;51.042;13.806;2022-08-19T12:33:15;26.36;74.13
65378;SHT31;51982;51.042;13.806;2022-08-19T12:35:41;26.30;74.82
65378;SHT31;51982;51.042;13.806;2022-08-19T12:38:07;26.23;76.20
65378;SHT31;51982;51.042;13.806;2022-08-19T12:40:33;26.14;77.02
65378;SHT31;51982;51.042;13.806;2022-08-19T12:42:58;26.08;76.59
65378;SHT31;51982;51.042;13.806;2022-08-19T12:45:24;26.06;75.99
65378;SHT31;51982;51.042;13.806;2022-08-19T12:47:49;26.12;75.85
65378;SHT31;51982;51.042;13.806;2022-08-19T12:50:15;26.14;75.52
65378;SHT31;51982;51.042;13.806;2022-08-19T12:52:40;26.14;75.34
65378;SHT31;51982;51.042;13.806;2022-08-19T12:55:07;26.17;75.00
65378;SHT31;51982;51.042;13.806;2022-08-19T12:57:33;26.18;74.64
65378;SHT31;51982;51.042;13.806;2022-08-19T13:00:09;26.21;74.03
65378;SHT31;51982;51.042;13.806;2022-08-19T13:02:39;26.36;74.14
65378;SHT31;51982;51.042;13.806;2022-08-19T13:05:07;26.47;73.96
65378;SHT31;51982;51.042;13.806;2022-08-19T13:07:33;26.61;73.62
65378;SHT31;51982;51.042;13.806;2022-08-19T13:09:59;26.74;73.24
65378;SHT31;51982;51.042;13.806;2022-08-19T13:12:25;26.78;72.96
65378;SHT31;51982;51.042;13.806;2022-08-19T13:14:51;26.84;72.54
65378;SHT31;51982;51.042;13.806;2022-08-19T13:17:17;26.89;72.21
65378;SHT31;51982;51.042;13.806;2022-08-19T13:19:42;26.98;72.05
65378;SHT31;51982;51.042;13.806;2022-08-19T13:22:07;26.98;71.80
65378;SHT31;51982;51.042;13.806;2022-08-19T13:24:32;27.00;71.69
65378;SHT31;51982;51.042;13.806;2022-08-19T13:26:59;26.94;71.63
65378;SHT31;51982;51.042;13.806;2022-08-19T13:29:24;26.88;71.72
65378;SHT31;51982;51.042;13.806;2022-08-19T13:32:08;26.85;71.67
65378;SHT31;51982;51.042;13.806;2022-08-19T13:34:52;26.95;71.73
65378;SHT31;51982;51.042;13.806;2022-08-19T13:37:17;26.92;71.76
65378;SHT31;51982;51.042;13.806;2022-08-19T13:40:03;26.75;71.93
65378;SHT31;51982;51.042;13.806;2022-08-19T13:42:28;26.67;72.10
65378;SHT31;51982;51.042;13.806;2022-08-19T13:44:54;26.52;72.35
65378;SHT31;51982;51.042;13.806;2022-08-19T13:47:20;26.48;72.31
65378;SHT31;51982;51.042;13.806;2022-08-19T13:49:45;26.48;72.30
65378;SHT31;51982;51.042;13.806;2022-08-19T13:52:11;26.44;72.43
65378;SHT31;51982;51.042;13.806;2022-08-19T13:54:36;26.40;72.59
65378;SHT31;51982;51.042;13.806;2022-08-19T13:57:01;26.37;72.65
65378;SHT31;51982;51.042;13.806;2022-08-19T13:59:26;26.33;72.55
65378;SHT31;51982;51.042;13.806;2022-08-19T14:01:52;26.21;72.63
65378;SHT31;51982;51.042;13.806;2022-08-19T14:04:18;26.17;72.65
65378;SHT31;51982;51.042;13.806;2022-08-19T14:06:43;26.18;72.66
65378;SHT31;51982;51.042;13.806;2022-08-19T14:09:08;26.16;72.71
65378;SHT31;51982;51.042;13.806;2022-08-19T14:11:34;26.20;72.74
65378;SHT31;51982;51.042;13.806;2022-08-19T14:13:59;26.21;72.73
65378;SHT31;51982;51.042;13.806;2022-08-19T14:16:24;26.21;72.79
65378;SHT31;51982;51.042;13.806;2022-08-19T14:18:50;26.20;72.85
65378;SHT31;51982;51.042;13.806;2022-08-19T14:21:18;26.20;72.97
65378;SHT31;51982;51.042;13.806;2022-08-19T14:23:45;26.24;72.95
65378;SHT31;51982;51.042;13.806;2022-08-19T14:26:13;26.13;73.02
65378;SHT31;51982;51.042;13.806;2022-08-19T14:28:39;26.16;73.06
65378;SHT31;51982;51.042;13.806;2022-08-19T14:31:07;26.07;73.01
65378;SHT31;51982;51.042;13.806;2022-08-19T14:33:33;26.00;73.17
65378;SHT31;51982;51.042;13.806;2022-08-19T14:35:58;25.97;73.21
65378;SHT31;51982;51.042;13.806;2022-08-19T14:38:24;25.96;73.29
65378;SHT31;51982;51.042;13.806;2022-08-19T14:40:49;25.96;73.33
65378;SHT31;51982;51.042;13.806;2022-08-19T14:43:17;25.96;73.37
65378;SHT31;51982;51.042;13.806;2022-08-19T14:45:42;25.90;73.54
65378;SHT31;51982;51.042;13.806;2022-08-19T14:48:08;25.86;73.61
65378;SHT31;51982;51.042;13.806;2022-08-19T14:50:34;25.80;73.81
65378;SHT31;51982;51.042;13.806;2022-08-19T14:53:04;25.77;73.84
65378;SHT31;51982;51.042;13.806;2022-08-19T14:55:31;25.74;73.91
65378;SHT31;51982;51.042;13.806;2022-08-19T14:57:57;25.74;73.96
65378;SHT31;51982;51.042;13.806;2022-08-19T15:00:22;25.70;74.07
65378;SHT31;51982;51.042;13.806;2022-08-19T15:02:48;25.73;73.98
65378;SHT31;51982;51.042;13.806;2022-08-19T15:05:14;25.67;74.16
65378;SHT31;51982;51.042;13.806;2022-08-19T15:07:40;25.63;74.25
65378;SHT31;51982;51.042;13.806;2022-08-19T15:10:06;25.67;74.17
65378;SHT31;51982;51.042;13.806;2022-08-19T15:12:33;25.66;74.09
65378;SHT31;51982;51.042;13.806;2022-08-19T15:14:59;25.65;74.08
65378;SHT31;51982;51.042;13.806;2022-08-19T15:17:24;25.65;74.10
65378;SHT31;51982;51.042;13.806;2022-08-19T15:19:49;25.66;74.18
65378;SHT31;51982;51.042;13.806;2022-08-19T15:22:14;25.63;74.17